Time;durP1;ratioP1;P1;durP2;ratioP2;P2;SDS_P1;SDS_P2;PMS_P1;PMS_P2;Temp;Humidity;BMP_temperature;BMP_pressure;BME280_temperature;BME280_humidity;BME280_pressure;Samples;Min_cycle;Max_cycle;Signal;HPM_P1;HPM_P2
2021/08/31 00:00:16;;;;;;;17.92;11.88;;;15.00;99.90;;;;;;4976292;28;20413;-66
2021/08/31 00:02:44;;;;;;;15.20;10.95;;;15.00;99.90;;;;;;4981627;28;20661;-67
2021/08/31 00:05:12;;;;;;;15.02;13.50;;;15.00;99.90;;;;;;4983076;28;20207;-65
2021/08/31 00:07:40;;;;;;;16.50;12.57;;;15.00;99.90;;;;;;4987087;28;20547;-65
2021/08/31 00:10:08;;;;;;;16.13;11.48;;;15.00;99.90;;;;;;4983528;28;20202;-64
2021/08/31 00:12:35;;;;;;;16.23;11.88;;;14.90;99.90;;;;;;4979636;28;20216;-64
2021/08/31 00:15:04;;;;;;;15.00;10.65;;;14.90;99.90;;;;;;4978851;28;20504;-63
2021/08/31 00:17:31;;;;;;;15.43;12.25;;;14.90;99.90;;;;;;4984269;28;20241;-63
2021/08/31 00:19:58;;;;;;;18.80;11.65;;;14.90;99.90;;;;;;4985937;28;20463;-65
2021/08/31 00:22:25;;;;;;;14.52;10.82;;;15.00;99.90;;;;;;4982311;28;20217;-65
2021/08/31 00:24:52;;;;;;;14.38;10.93;;;15.10;99.90;;;;;;4981169;28;20202;-64
2021/08/31 00:27:19;;;;;;;14.13;12.25;;;15.10;99.90;;;;;;4980716;28;20508;-66
2021/08/31 00:29:46;;;;;;;21.25;12.90;;;15.10;99.90;;;;;;4983338;28;20322;-65
2021/08/31 00:32:13;;;;;;;13.75;10.20;;;15.00;99.90;;;;;;4979830;28;20198;-66
2021/08/31 00:34:40;;;;;;;13.93;9.85;;;15.00;99.90;;;;;;4989973;28;20229;-67
2021/08/31 00:37:07;;;;;;;16.30;11.55;;;15.00;99.90;;;;;;4994768;28;20516;-69
2021/08/31 00:39:34;;;;;;;14.65;9.57;;;15.00;99.90;;;;;;4999002;28;20380;-68
2021/08/31 00:42:01;;;;;;;15.73;10.38;;;15.00;99.90;;;;;;4987731;28;20207;-67
2021/08/31 00:44:28;;;;;;;11.18;9.77;;;15.00;99.90;;;;;;4984468;28;20205;-67
2021/08/31 00:46:59;;;;;;;11.70;8.57;;;14.90;99.90;;;;;;4985030;28;20221;-69
2021/08/31 00:49:27;;;;;;;11.70;8.48;;;14.90;99.90;;;;;;4992922;28;20201;-67
2021/08/31 00:51:57;;;;;;;11.95;7.80;;;14.90;99.90;;;;;;4998227;28;20233;-68
2021/08/31 00:54:25;;;;;;;11.95;8.75;;;14.80;99.90;;;;;;4993847;28;20225;-69
2021/08/31 00:56:52;;;;;;;8.65;7.45;;;14.90;99.90;;;;;;4978625;28;20493;-67
2021/08/31 00:59:21;;;;;;;11.60;8.38;;;14.90;99.90;;;;;;4991840;28;20480;-67
2021/08/31 01:01:55;;;;;;;11.88;9.15;;;14.90;99.90;;;;;;4979675;28;20202;-66
2021/08/31 01:04:23;;;;;;;11.50;8.70;;;14.90;99.90;;;;;;4978978;28;20206;-65
2021/08/31 01:06:52;;;;;;;10.32;7.60;;;15.00;99.90;;;;;;4990928;28;20272;-66
2021/08/31 01:09:20;;;;;;;14.43;8.77;;;15.00;99.90;;;;;;4982704;28;20292;-65
2021/08/31 01:11:48;;;;;;;12.40;8.13;;;15.10;99.90;;;;;;4987317;28;20258;-66
2021/08/31 01:14:17;;;;;;;13.48;9.02;;;15.10;99.90;;;;;;4988003;28;20230;-66
2021/08/31 01:16:45;;;;;;;9.88;8.02;;;15.10;99.90;;;;;;4996913;28;20440;-65
2021/08/31 01:19:15;;;;;;;10.25;7.90;;;15.10;99.90;;;;;;4994029;28;20225;-67
2021/08/31 01:21:42;;;;;;;11.85;8.65;;;15.20;99.90;;;;;;4985594;28;20201;-65
2021/08/31 01:24:09;;;;;;;8.93;7.85;;;15.30;99.90;;;;;;4996768;28;20248;-65
2021/08/31 01:26:36;;;;;;;10.70;8.40;;;15.30;99.90;;;;;;4985012;28;20658;-66
2021/08/31 01:29:03;;;;;;;12.88;8.77;;;15.30;99.90;;;;;;4998208;28;20206;-66
2021/08/31 01:31:30;;;;;;;12.25;9.07;;;15.30;99.90;;;;;;4995992;28;20208;-66
2021/08/31 01:33:57;;;;;;;10.57;8.50;;;15.30;99.90;;;;;;4990607;28;20265;-66
2021/08/31 01:36:25;;;;;;;13.32;8.02;;;15.30;99.90;;;;;;4978043;28;20281;-66
2021/08/31 01:38:55;;;;;;;9.00;7.85;;;15.20;99.90;;;;;;4985600;28;20249;-65
2021/08/31 01:41:24;;;;;;;11.10;8.23;;;15.20;99.90;;;;;;4979332;28;20205;-67
2021/08/31 01:43:52;;;;;;;9.50;7.60;;;15.20;99.90;;;;;;4978650;28;20206;-65
2021/08/31 01:46:19;;;;;;;13.07;8.18;;;15.20;99.90;;;;;;4980052;28;20207;-66
2021/08/31 01:48:46;;;;;;;11.45;8.15;;;15.20;99.90;;;;;;4980122;28;20214;-71
2021/08/31 01:51:13;;;;;;;9.93;8.77;;;15.10;99.90;;;;;;4978574;28;20211;-67
2021/08/31 01:53:40;;;;;;;9.52;7.13;;;15.20;99.90;;;;;;4980002;28;20202;-67
2021/08/31 01:56:07;;;;;;;9.35;8.32;;;15.20;99.90;;;;;;4978546;28;20281;-67
2021/08/31 01:58:34;;;;;;;9.25;7.90;;;15.20;99.90;;;;;;4993161;28;21491;-67
2021/08/31 02:01:02;;;;;;;9.07;8.15;;;15.20;99.90;;;;;;4978948;28;20226;-65
2021/08/31 02:03:30;;;;;;;11.05;8.27;;;15.20;99.90;;;;;;4992118;28;20194;-67
2021/08/31 02:05:57;;;;;;;9.07;6.70;;;15.20;99.90;;;;;;4978467;28;20202;-66
2021/08/31 02:08:24;;;;;;;8.50;7.60;;;15.20;99.90;;;;;;4980547;28;20203;-66
2021/08/31 02:10:51;;;;;;;7.32;6.47;;;15.30;99.90;;;;;;4980363;28;20253;-66
2021/08/31 02:13:18;;;;;;;9.00;7.15;;;15.30;99.90;;;;;;4983760;28;20425;-68
2021/08/31 02:15:45;;;;;;;10.45;7.40;;;15.30;99.90;;;;;;4979366;28;20464;-68
2021/08/31 02:18:12;;;;;;;9.85;8.52;;;15.30;99.90;;;;;;4977753;28;20202;-66
2021/08/31 02:20:40;;;;;;;7.63;6.68;;;15.30;99.90;;;;;;4977295;28;20657;-65
2021/08/31 02:23:07;;;;;;;8.52;6.70;;;15.30;99.90;;;;;;4979743;28;20673;-66
2021/08/31 02:25:34;;;;;;;8.65;6.55;;;15.30;99.90;;;;;;4980684;28;20429;-67
2021/08/31 02:28:01;;;;;;;11.45;6.68;;;15.30;99.90;;;;;;4979485;28;20198;-65
2021/08/31 02:30:29;;;;;;;7.75;6.95;;;15.40;99.90;;;;;;4980009;28;20582;-65
2021/08/31 02:33:00;;;;;;;8.13;6.60;;;15.30;99.90;;;;;;4977967;28;20440;-67
2021/08/31 02:35:27;;;;;;;6.75;5.80;;;15.30;99.90;;;;;;4979108;28;20705;-66
2021/08/31 02:37:55;;;;;;;8.57;6.72;;;15.20;99.90;;;;;;4979213;28;20218;-67
2021/08/31 02:40:22;;;;;;;7.43;6.55;;;15.20;99.90;;;;;;4978394;28;20274;-67
2021/08/31 02:42:49;;;;;;;5.80;5.00;;;15.20;99.90;;;;;;4978608;28;20210;-67
2021/08/31 02:45:17;;;;;;;5.38;4.88;;;15.20;99.90;;;;;;4977913;28;20456;-66
2021/08/31 02:47:44;;;;;;;6.55;5.50;;;15.20;99.90;;;;;;4978121;28;20302;-65
2021/08/31 02:50:11;;;;;;;5.90;5.30;;;15.10;99.90;;;;;;4976778;28;20199;-66
2021/08/31 02:52:38;;;;;;;5.85;5.25;;;15.10;99.90;;;;;;4989869;28;20208;-68
2021/08/31 02:55:05;;;;;;;5.60;5.10;;;15.10;99.90;;;;;;4994858;28;20242;-66
2021/08/31 02:57:32;;;;;;;4.55;4.15;;;15.10;99.90;;;;;;4995908;28;20207;-66
2021/08/31 03:00:00;;;;;;;7.65;5.05;;;15.10;99.90;;;;;;4982672;28;20260;-68
2021/08/31 03:02:28;;;;;;;6.43;4.75;;;15.10;99.90;;;;;;4996148;28;20244;-66
2021/08/31 03:04:55;;;;;;;5.95;5.40;;;15.10;99.90;;;;;;4996134;28;20309;-67
2021/08/31 03:07:22;;;;;;;5.25;4.72;;;15.40;99.90;;;;;;4991247;28;20217;-66
2021/08/31 03:09:50;;;;;;;5.07;4.45;;;15.10;99.90;;;;;;4976866;28;20253;-67
2021/08/31 03:12:17;;;;;;;4.95;4.45;;;15.10;99.90;;;;;;4996078;28;20446;-66
2021/08/31 03:14:44;;;;;;;4.55;4.15;;;15.20;99.90;;;;;;4986416;28;20242;-64
2021/08/31 03:17:11;;;;;;;4.55;4.15;;;15.10;99.90;;;;;;4994406;28;20197;-67
2021/08/31 03:19:39;;;;;;;4.65;4.25;;;15.10;99.90;;;;;;4996549;28;20261;-66
2021/08/31 03:22:09;;;;;;;4.75;4.05;;;15.10;99.90;;;;;;4985236;28;20198;-67
2021/08/31 03:24:36;;;;;;;4.38;3.90;;;15.00;99.90;;;;;;4987685;28;20249;-66
2021/08/31 03:27:07;;;;;;;4.30;3.95;;;15.00;99.90;;;;;;4992544;28;20293;-66
2021/08/31 03:29:34;;;;;;;4.35;4.05;;;15.00;99.90;;;;;;4985308;28;20424;-66
2021/08/31 03:32:01;;;;;;;4.20;3.80;;;15.00;99.90;;;;;;4996006;28;20205;-68
2021/08/31 03:34:28;;;;;;;4.05;3.70;;;15.00;99.90;;;;;;4995400;28;20488;-66
2021/08/31 03:36:55;;;;;;;4.38;3.97;;;15.00;99.90;;;;;;4985681;28;20242;-66
2021/08/31 03:39:22;;;;;;;4.88;4.47;;;15.10;99.90;;;;;;4979051;28;20303;-65
2021/08/31 03:41:49;;;;;;;4.57;4.20;;;15.00;99.90;;;;;;4977403;28;20202;-65
2021/08/31 03:44:16;;;;;;;4.55;4.13;;;15.10;99.90;;;;;;4985591;28;20551;-65
2021/08/31 03:46:43;;;;;;;4.95;4.55;;;15.00;99.90;;;;;;4983812;28;20370;-65
2021/08/31 03:49:10;;;;;;;5.22;4.72;;;15.00;99.90;;;;;;4976771;28;20511;-66
2021/08/31 03:51:37;;;;;;;5.00;4.43;;;15.00;99.90;;;;;;4978042;28;20265;-65
2021/08/31 03:54:04;;;;;;;4.85;4.45;;;15.00;99.90;;;;;;4977054;28;20234;-66
2021/08/31 03:56:31;;;;;;;6.20;3.80;;;15.00;99.90;;;;;;4976845;28;20532;-65
2021/08/31 03:58:58;;;;;;;4.68;4.28;;;15.10;99.90;;;;;;4981279;28;20699;-63
2021/08/31 04:01:25;;;;;;;4.60;4.00;;;15.00;99.90;;;;;;4988644;28;20202;-62
2021/08/31 04:03:52;;;;;;;4.35;4.05;;;15.00;99.90;;;;;;4979026;28;20269;-63
2021/08/31 04:06:20;;;;;;;5.43;4.93;;;14.90;99.90;;;;;;4980035;28;20282;-62
2021/08/31 04:08:47;;;;;;;8.80;5.90;;;15.00;99.90;;;;;;4996427;28;20210;-65
2021/08/31 04:11:14;;;;;;;7.43;5.68;;;15.00;99.90;;;;;;4999386;28;20504;-63
2021/08/31 04:13:41;;;;;;;5.88;5.25;;;14.90;99.90;;;;;;4999368;28;20266;-63
2021/08/31 04:16:09;;;;;;;6.22;5.55;;;14.90;99.90;;;;;;4999072;28;20225;-63
2021/08/31 04:18:35;;;;;;;6.97;6.28;;;15.00;99.90;;;;;;4999955;28;20388;-63
2021/08/31 04:21:03;;;;;;;6.30;5.80;;;15.00;99.90;;;;;;4998701;28;20205;-64
2021/08/31 04:23:29;;;;;;;6.25;5.65;;;15.00;99.90;;;;;;4999474;28;20586;-64
2021/08/31 04:25:57;;;;;;;7.75;6.20;;;14.90;99.90;;;;;;4985450;28;20224;-65
2021/08/31 04:28:24;;;;;;;6.22;5.63;;;15.00;99.90;;;;;;4999806;28;20229;-63
2021/08/31 04:30:51;;;;;;;6.60;6.00;;;14.90;99.90;;;;;;4982851;28;20228;-63
2021/08/31 04:33:18;;;;;;;6.28;5.78;;;15.00;99.90;;;;;;4988566;28;20244;-63
2021/08/31 04:35:45;;;;;;;5.75;5.20;;;15.00;99.90;;;;;;4998717;28;20415;-64
2021/08/31 04:38:13;;;;;;;5.65;5.15;;;15.00;99.90;;;;;;4992220;28;20222;-64
2021/08/31 04:40:40;;;;;;;6.72;5.45;;;15.00;99.90;;;;;;4979769;28;20249;-64
2021/08/31 04:43:07;;;;;;;6.05;5.50;;;15.00;99.90;;;;;;4979619;28;20198;-63
2021/08/31 04:45:34;;;;;;;5.38;4.60;;;15.10;99.90;;;;;;4979002;28;20476;-64
2021/08/31 04:48:01;;;;;;;6.45;5.40;;;15.10;99.90;;;;;;4980469;28;20242;-63
2021/08/31 04:50:28;;;;;;;5.63;5.13;;;15.00;99.90;;;;;;4980284;28;20206;-64
2021/08/31 04:52:55;;;;;;;4.85;4.45;;;15.00;99.90;;;;;;4980351;28;20440;-62
2021/08/31 04:55:23;;;;;;;5.60;5.10;;;15.10;99.90;;;;;;4986653;28;20222;-63
2021/08/31 04:57:50;;;;;;;5.75;5.05;;;15.10;99.90;;;;;;4997684;28;20614;-64
2021/08/31 05:00:17;;;;;;;4.75;4.35;;;15.10;99.90;;;;;;4995877;28;20218;-62
2021/08/31 05:02:44;;;;;;;5.57;5.05;;;15.00;99.90;;;;;;4979773;28;20548;-63
2021/08/31 05:05:11;;;;;;;6.00;5.18;;;15.00;99.90;;;;;;4993285;28;20202;-62
2021/08/31 05:07:39;;;;;;;5.50;5.00;;;15.00;99.90;;;;;;4999007;28;20213;-62
2021/08/31 05:10:09;;;;;;;9.25;5.00;;;15.00;99.90;;;;;;4998289;28;20202;-61
2021/08/31 05:12:37;;;;;;;4.13;3.67;;;15.00;99.90;;;;;;4985052;28;20202;-61
2021/08/31 05:15:04;;;;;;;5.40;4.90;;;15.00;99.90;;;;;;4997044;28;20241;-61
2021/08/31 05:17:32;;;;;;;4.07;3.60;;;15.00;99.90;;;;;;4981616;28;20393;-60
2021/08/31 05:19:59;;;;;;;4.07;3.78;;;15.00;99.90;;;;;;4996605;28;20252;-61
2021/08/31 05:22:27;;;;;;;6.35;4.15;;;15.00;99.90;;;;;;4994246;28;20206;-61
2021/08/31 05:24:54;;;;;;;3.80;3.50;;;15.00;99.90;;;;;;4996577;28;20206;-61
2021/08/31 05:27:24;;;;;;;7.00;3.80;;;15.10;99.90;;;;;;4982034;28;20202;-61
2021/08/31 05:29:51;;;;;;;4.53;4.22;;;15.00;99.90;;;;;;4996675;28;20198;-61
2021/08/31 05:32:19;;;;;;;5.13;4.53;;;15.00;99.90;;;;;;4995934;28;20202;-63
2021/08/31 05:34:46;;;;;;;4.97;4.47;;;15.00;99.90;;;;;;4995023;28;20236;-61
2021/08/31 05:37:13;;;;;;;4.93;4.53;;;15.00;99.90;;;;;;4995930;28;20459;-61
2021/08/31 05:39:40;;;;;;;4.47;4.07;;;15.00;99.90;;;;;;4979860;28;20425;-61
2021/08/31 05:42:09;;;;;;;4.32;4.00;;;15.00;99.90;;;;;;4979058;28;20210;-61
2021/08/31 05:44:39;;;;;;;7.43;5.40;;;15.00;99.90;;;;;;4979063;28;20198;-61
2021/08/31 05:47:07;;;;;;;9.07;4.35;;;15.00;99.90;;;;;;4979627;28;20206;-61
2021/08/31 05:49:35;;;;;;;8.35;5.38;;;15.00;99.90;;;;;;4978963;28;20252;-60
2021/08/31 05:52:03;;;;;;;5.47;4.97;;;14.90;99.90;;;;;;4978020;28;20322;-60
2021/08/31 05:54:30;;;;;;;6.35;5.07;;;14.90;99.90;;;;;;4978913;28;20264;-60
2021/08/31 05:56:59;;;;;;;6.40;4.50;;;14.90;99.90;;;;;;4981313;28;20244;-60
2021/08/31 05:59:26;;;;;;;5.78;5.18;;;14.90;99.90;;;;;;4987898;28;20286;-60
2021/08/31 06:01:58;;;;;;;8.95;4.88;;;15.00;99.90;;;;;;4995542;28;20206;-61
2021/08/31 06:04:36;;;;;;;6.35;5.72;;;15.00;99.90;;;;;;4988103;28;20202;-61
2021/08/31 06:07:07;;;;;;;6.03;5.43;;;15.10;99.90;;;;;;4980737;28;20234;-62
2021/08/31 06:09:40;;;;;;;6.13;5.50;;;15.00;99.90;;;;;;4997838;28;20279;-60
2021/08/31 06:12:11;;;;;;;8.00;5.60;;;15.00;99.90;;;;;;4996541;28;20202;-61
2021/08/31 06:14:40;;;;;;;5.30;4.80;;;15.00;99.90;;;;;;4997420;28;20325;-61
2021/08/31 06:17:07;;;;;;;5.38;4.80;;;15.00;99.90;;;;;;4995755;28;20224;-60
2021/08/31 06:19:35;;;;;;;5.03;3.90;;;15.10;99.90;;;;;;4997234;28;20202;-62
2021/08/31 06:22:03;;;;;;;4.88;4.43;;;15.10;99.90;;;;;;4984108;28;20243;-62
2021/08/31 06:24:31;;;;;;;4.63;3.95;;;15.10;99.90;;;;;;4984043;28;20248;-60
2021/08/31 06:26:58;;;;;;;7.40;5.50;;;15.10;99.90;;;;;;4984046;28;20396;-61
2021/08/31 06:29:25;;;;;;;5.55;5.07;;;15.10;99.90;;;;;;4995689;28;20252;-62
2021/08/31 06:31:52;;;;;;;7.22;6.05;;;15.00;99.90;;;;;;4996549;28;20252;-62
2021/08/31 06:34:19;;;;;;;7.25;6.10;;;15.00;99.90;;;;;;4983440;28;20244;-62
2021/08/31 06:36:47;;;;;;;6.93;6.03;;;15.10;99.90;;;;;;4996730;28;20269;-61
2021/08/31 06:39:15;;;;;;;5.35;4.85;;;15.10;99.90;;;;;;4982223;28;20210;-61
2021/08/31 06:41:42;;;;;;;6.80;6.07;;;15.20;99.90;;;;;;4978296;28;20206;-62
2021/08/31 06:44:09;;;;;;;6.43;5.82;;;15.20;99.90;;;;;;4978093;28;20493;-63
2021/08/31 06:46:36;;;;;;;8.20;7.38;;;15.20;99.90;;;;;;4978710;28;20210;-62
2021/08/31 06:49:12;;;;;;;8.48;6.60;;;15.40;99.90;;;;;;4976819;28;20488;-61
2021/08/31 06:51:39;;;;;;;7.72;6.75;;;15.40;99.90;;;;;;4978060;28;20229;-61
2021/08/31 06:54:07;;;;;;;13.18;7.15;;;15.40;99.90;;;;;;4978349;28;20241;-62
2021/08/31 06:56:34;;;;;;;6.78;6.18;;;15.50;99.90;;;;;;4977715;28;20222;-62
2021/08/31 06:59:01;;;;;;;6.18;5.68;;;15.50;99.90;;;;;;4996948;28;20197;-61
2021/08/31 07:01:31;;;;;;;8.35;7.55;;;15.40;99.90;;;;;;4996106;28;20252;-61
2021/08/31 07:03:59;;;;;;;8.80;7.57;;;15.30;99.90;;;;;;4996841;28;20201;-62
2021/08/31 07:06:26;;;;;;;8.35;7.22;;;15.30;99.90;;;;;;4997128;28;20205;-62
2021/08/31 07:08:53;;;;;;;9.27;7.75;;;15.40;99.90;;;;;;4979379;28;20265;-63
2021/08/31 07:11:20;;;;;;;9.80;8.80;;;15.40;99.90;;;;;;4986521;28;20228;-62
2021/08/31 07:13:48;;;;;;;11.07;8.13;;;15.50;99.90;;;;;;4996864;28;20209;-61
2021/08/31 07:16:15;;;;;;;10.65;9.05;;;15.00;99.90;;;;;;4995999;28;20256;-61
2021/08/31 07:18:43;;;;;;;9.80;8.80;;;15.50;99.90;;;;;;4996079;28;20205;-61
2021/08/31 07:21:10;;;;;;;14.10;8.88;;;15.60;99.90;;;;;;4996125;28;20413;-61
2021/08/31 07:23:37;;;;;;;10.60;9.35;;;15.50;99.90;;;;;;4995912;28;20206;-61
2021/08/31 07:26:04;;;;;;;10.20;8.98;;;15.50;99.90;;;;;;4982326;28;20260;-62
2021/08/31 07:28:31;;;;;;;9.98;8.73;;;15.60;99.90;;;;;;4996233;28;20508;-61
2021/08/31 07:31:19;;;;;;;10.25;9.00;;;15.70;99.90;;;;;;4996552;28;20189;-60
2021/08/31 07:33:46;;;;;;;13.30;8.52;;;15.70;99.90;;;;;;4996294;28;20229;-62
2021/08/31 07:36:13;;;;;;;9.20;8.40;;;15.60;99.90;;;;;;4994749;28;20396;-61
2021/08/31 07:38:40;;;;;;;8.85;7.95;;;15.80;99.90;;;;;;4988151;28;20242;-60
2021/08/31 07:41:07;;;;;;;7.80;7.03;;;15.90;99.90;;;;;;4981420;28;20206;-61
2021/08/31 07:43:34;;;;;;;9.55;8.70;;;15.90;99.90;;;;;;4980797;28;20205;-62
2021/08/31 07:46:01;;;;;;;8.82;8.00;;;15.90;99.90;;;;;;4981037;28;20421;-61
2021/08/31 07:48:28;;;;;;;8.27;7.53;;;15.80;99.90;;;;;;4981426;28;20732;-62
2021/08/31 07:50:55;;;;;;;10.10;8.63;;;15.80;99.90;;;;;;4980883;28;20226;-62
2021/08/31 07:53:22;;;;;;;10.43;8.20;;;15.80;99.90;;;;;;4980569;28;20206;-61
2021/08/31 07:55:49;;;;;;;7.53;6.82;;;15.80;99.90;;;;;;4992589;28;20202;-60
2021/08/31 07:58:16;;;;;;;9.57;8.48;;;15.80;99.90;;;;;;4995376;28;20201;-61
2021/08/31 08:00:43;;;;;;;9.48;7.75;;;15.90;99.90;;;;;;5000218;28;20202;-63
2021/08/31 08:03:10;;;;;;;8.15;7.45;;;15.90;99.90;;;;;;4999600;28;20576;-62
2021/08/31 08:05:37;;;;;;;7.35;6.60;;;15.90;99.90;;;;;;4997578;28;20258;-61
2021/08/31 08:08:05;;;;;;;7.35;6.65;;;15.90;99.90;;;;;;5000078;28;20253;-62
2021/08/31 08:10:32;;;;;;;7.45;6.85;;;15.90;99.90;;;;;;4996638;28;20199;-62
2021/08/31 08:12:59;;;;;;;7.35;6.65;;;16.00;99.90;;;;;;4981797;28;20230;-62
2021/08/31 08:15:26;;;;;;;7.05;6.28;;;16.00;99.90;;;;;;4999799;28;20524;-62
2021/08/31 08:17:53;;;;;;;8.18;7.45;;;16.00;99.90;;;;;;4991372;28;20433;-63
2021/08/31 08:20:20;;;;;;;6.80;6.20;;;16.00;99.90;;;;;;4979860;28;20210;-62
2021/08/31 08:22:47;;;;;;;6.47;5.88;;;16.00;99.90;;;;;;4979631;28;20199;-61
2021/08/31 08:25:14;;;;;;;5.75;5.25;;;16.00;99.90;;;;;;4980148;28;20203;-61
2021/08/31 08:27:42;;;;;;;6.05;5.55;;;16.10;99.90;;;;;;4996016;28;20670;-61
2021/08/31 08:30:10;;;;;;;9.25;6.72;;;16.00;99.90;;;;;;4998898;28;20248;-60
2021/08/31 08:32:37;;;;;;;6.30;5.70;;;16.00;99.90;;;;;;4996042;28;20255;-62
2021/08/31 08:35:06;;;;;;;6.30;5.70;;;16.00;99.90;;;;;;4987136;28;20206;-62
2021/08/31 08:37:34;;;;;;;9.00;6.47;;;15.90;99.90;;;;;;4997057;28;20455;-62
2021/08/31 08:40:02;;;;;;;6.75;6.13;;;15.90;99.90;;;;;;4980290;28;20270;-62
2021/08/31 08:42:30;;;;;;;6.47;5.60;;;15.90;99.90;;;;;;4980377;28;20215;-62
2021/08/31 08:44:57;;;;;;;5.70;5.00;;;15.80;99.90;;;;;;4980363;28;20203;-65
2021/08/31 08:47:24;;;;;;;5.18;4.75;;;15.80;99.90;;;;;;4978786;28;20210;-61
2021/08/31 08:49:51;;;;;;;5.60;5.10;;;15.80;99.90;;;;;;4978945;28;20529;-63
2021/08/31 08:52:18;;;;;;;5.25;4.80;;;15.80;99.90;;;;;;4986032;28;20205;-60
2021/08/31 08:54:45;;;;;;;5.83;5.10;;;15.90;99.90;;;;;;4995749;28;20421;-61
2021/08/31 08:57:18;;;;;;;4.88;4.47;;;16.00;99.90;;;;;;4994333;28;20451;-60
2021/08/31 08:59:49;;;;;;;6.07;5.47;;;16.10;99.90;;;;;;4987342;28;20202;-61
2021/08/31 09:02:38;;;;;;;5.38;4.88;;;16.20;99.90;;;;;;4983846;28;20218;-61
2021/08/31 09:05:10;;;;;;;4.57;4.17;;;16.30;99.90;;;;;;4984086;28;20516;-60
2021/08/31 09:07:39;;;;;;;4.00;3.70;;;16.40;99.90;;;;;;4979563;28;20454;-60
2021/08/31 09:10:25;;;;;;;4.15;3.75;;;16.40;99.90;;;;;;4990491;28;20205;-61
2021/08/31 09:12:53;;;;;;;4.33;3.93;;;16.30;99.90;;;;;;4992479;28;20200;-61
2021/08/31 09:15:32;;;;;;;4.40;4.00;;;16.10;99.90;;;;;;4995495;28;20474;-61
2021/08/31 09:18:06;;;;;;;4.50;4.20;;;16.50;99.90;;;;;;4994410;28;20465;-60
2021/08/31 09:20:36;;;;;;;4.63;4.22;;;16.00;99.90;;;;;;4993008;28;20414;-61
2021/08/31 09:23:05;;;;;;;4.27;3.87;;;16.50;99.90;;;;;;4988279;28;20199;-61
2021/08/31 09:25:33;;;;;;;3.65;3.35;;;16.50;99.90;;;;;;4995917;28;20412;-61
2021/08/31 09:28:01;;;;;;;3.77;3.47;;;16.50;99.90;;;;;;4991360;28;20269;-60
2021/08/31 09:30:30;;;;;;;4.18;3.88;;;16.40;99.90;;;;;;4996443;28;20629;-62
2021/08/31 09:33:12;;;;;;;3.60;3.30;;;16.30;99.90;;;;;;4994378;28;20202;-62
2021/08/31 09:35:42;;;;;;;3.72;3.45;;;16.40;99.90;;;;;;4991823;28;20199;-60
2021/08/31 09:38:11;;;;;;;4.18;3.88;;;16.40;99.90;;;;;;4988873;28;20233;-62
2021/08/31 09:40:44;;;;;;;5.70;4.20;;;16.50;99.90;;;;;;4992544;28;20204;-61
2021/08/31 09:43:17;;;;;;;2.95;2.65;;;16.50;99.90;;;;;;4995958;28;20414;-62
2021/08/31 09:45:51;;;;;;;4.70;3.60;;;16.20;99.90;;;;;;4992318;28;20554;-60
2021/08/31 09:48:19;;;;;;;4.00;3.70;;;16.50;99.90;;;;;;4987083;28;20793;-62
2021/08/31 09:50:52;;;;;;;4.80;3.80;;;16.60;99.90;;;;;;4983076;28;20417;-60
2021/08/31 09:53:27;;;;;;;4.30;3.90;;;16.60;99.90;;;;;;4980039;28;20493;-60
2021/08/31 09:56:02;;;;;;;4.20;3.90;;;16.60;99.90;;;;;;4981481;28;20540;-59
2021/08/31 09:58:32;;;;;;;4.80;4.03;;;16.80;99.90;;;;;;4995900;28;20613;-61
2021/08/31 10:01:00;;;;;;;4.37;4.00;;;16.50;99.90;;;;;;4997059;28;20443;-60
2021/08/31 10:03:29;;;;;;;5.83;4.43;;;16.40;99.90;;;;;;4995244;28;20565;-61
2021/08/31 10:05:58;;;;;;;4.87;4.43;;;16.40;99.90;;;;;;4996241;28;20437;-60
2021/08/31 10:08:28;;;;;;;5.68;5.05;;;16.40;99.90;;;;;;4996073;28;21796;-60
2021/08/31 10:10:55;;;;;;;5.27;4.80;;;16.40;99.90;;;;;;4994469;28;20201;-60
2021/08/31 10:13:24;;;;;;;4.63;4.20;;;16.40;99.90;;;;;;4996225;28;20449;-59
2021/08/31 10:15:54;;;;;;;5.00;4.53;;;16.40;99.90;;;;;;4993451;28;20226;-61
2021/08/31 10:18:23;;;;;;;5.13;4.63;;;16.40;99.90;;;;;;4996049;28;20669;-59
2021/08/31 10:21:10;;;;;;;5.60;5.07;;;16.50;99.90;;;;;;4996567;28;20217;-61
2021/08/31 10:23:41;;;;;;;5.53;5.03;;;16.50;99.90;;;;;;4994365;28;20399;-61
2021/08/31 10:26:32;;;;;;;4.67;4.27;;;16.90;99.90;;;;;;4996635;28;20511;-62
2021/08/31 10:29:14;;;;;;;4.50;4.10;;;16.40;99.90;;;;;;4990972;28;20420;-60
2021/08/31 10:31:46;;;;;;;5.65;4.97;;;16.30;99.90;;;;;;4995304;28;20450;-62
2021/08/31 10:34:31;;;;;;;6.00;4.90;;;16.40;99.90;;;;;;4995063;28;20200;-61
2021/08/31 10:37:00;;;;;;;7.70;6.10;;;16.40;99.90;;;;;;4995664;28;20822;-60
2021/08/31 10:40:00;;;;;;;5.73;5.33;;;16.60;99.90;;;;;;4988479;28;20521;-60
2021/08/31 10:42:26;;;;;;;7.20;6.50;;;16.70;99.90;;;;;;4978022;28;20420;-60
2021/08/31 10:44:58;;;;;;;6.30;5.70;;;16.80;99.90;;;;;;4992677;28;20408;-60
2021/08/31 10:47:36;;;;;;;7.77;5.73;;;16.90;99.90;;;;;;4993078;28;20503;-60
2021/08/31 10:50:08;;;;;;;7.00;5.57;;;17.00;99.90;;;;;;4994303;28;20412;-60
2021/08/31 10:52:35;;;;;;;6.87;6.17;;;17.10;99.90;;;;;;4992489;28;20449;-60
2021/08/31 10:55:23;;;;;;;5.87;5.37;;;17.00;99.90;;;;;;4993927;28;20433;-60
2021/08/31 10:57:58;;;;;;;5.70;5.20;;;17.10;99.90;;;;;;4987885;28;20445;-60
2021/08/31 11:00:25;;;;;;;7.23;5.50;;;16.80;99.90;;;;;;4995093;28;20797;-60
2021/08/31 11:02:57;;;;;;;6.37;5.77;;;16.70;99.90;;;;;;4993378;28;20431;-60
2021/08/31 11:05:27;;;;;;;6.13;5.60;;;16.60;99.90;;;;;;4989390;28;20412;-61
2021/08/31 11:07:59;;;;;;;6.57;5.97;;;16.40;99.90;;;;;;4993206;28;20434;-60
2021/08/31 11:10:27;;;;;;;7.73;6.93;;;16.30;99.90;;;;;;4994250;28;20447;-60
2021/08/31 11:12:56;;;;;;;6.73;5.90;;;16.30;99.90;;;;;;4994717;28;20664;-59
2021/08/31 11:15:28;;;;;;;8.50;6.27;;;16.40;99.90;;;;;;4989938;28;20447;-59
2021/08/31 11:17:55;;;;;;;6.43;5.83;;;16.30;99.90;;;;;;4992558;28;20529;-59
2021/08/31 11:20:29;;;;;;;7.45;6.85;;;16.30;99.90;;;;;;4992904;28;20651;-60
2021/08/31 11:23:02;;;;;;;9.02;7.30;;;16.40;99.90;;;;;;4994354;28;20216;-60
2021/08/31 11:25:32;;;;;;;7.10;6.40;;;16.40;99.90;;;;;;4982064;28;20204;-58
2021/08/31 11:28:01;;;;;;;8.43;7.63;;;16.30;99.90;;;;;;4994264;28;20426;-60
2021/08/31 11:30:29;;;;;;;8.33;7.57;;;16.30;99.90;;;;;;4978614;28;20451;-59
2021/08/31 11:33:38;;;;;;;8.23;7.43;;;16.30;99.90;;;;;;4985624;28;20443;-59
2021/08/31 11:36:14;;;;;;;9.43;8.52;;;16.30;99.90;;;;;;4987418;28;20215;-59
2021/08/31 11:38:47;;;;;;;7.83;7.17;;;16.30;99.90;;;;;;4985293;28;20234;-59
2021/08/31 11:41:24;;;;;;;7.80;6.80;;;16.40;99.90;;;;;;4976532;28;20723;-59
2021/08/31 11:44:08;;;;;;;8.27;7.47;;;16.30;99.90;;;;;;4988249;28;20720;-59
2021/08/31 11:46:38;;;;;;;8.57;7.72;;;16.30;99.90;;;;;;4989240;28;20592;-61
2021/08/31 11:49:06;;;;;;;12.10;9.17;;;16.20;99.90;;;;;;4984913;28;20298;-61
2021/08/31 11:51:33;;;;;;;8.90;7.93;;;16.20;99.90;;;;;;4989834;28;20743;-61
2021/08/31 11:54:06;;;;;;;7.90;6.78;;;16.20;99.90;;;;;;4995416;28;20363;-60
2021/08/31 11:56:36;;;;;;;8.73;7.93;;;16.20;99.90;;;;;;4986438;28;20610;-59
2021/08/31 11:59:04;;;;;;;10.38;9.27;;;16.20;99.90;;;;;;4989744;28;20814;-59
2021/08/31 12:01:33;;;;;;;8.43;7.55;;;16.30;99.90;;;;;;4988951;28;20214;-60
2021/08/31 12:04:17;;;;;;;8.82;8.02;;;16.40;99.90;;;;;;4975380;28;20231;-59
2021/08/31 12:06:45;;;;;;;8.47;6.70;;;16.40;99.90;;;;;;4992130;28;20218;-60
2021/08/31 12:09:16;;;;;;;7.00;6.40;;;16.30;99.90;;;;;;4990452;28;20721;-60
2021/08/31 12:11:49;;;;;;;8.80;6.78;;;16.30;99.90;;;;;;4990244;28;20477;-61
2021/08/31 12:14:17;;;;;;;8.70;7.90;;;16.40;99.90;;;;;;4994994;28;20234;-59
2021/08/31 12:16:46;;;;;;;8.55;7.75;;;16.40;99.90;;;;;;4983647;28;20434;-59
2021/08/31 12:19:17;;;;;;;8.33;7.53;;;16.40;99.90;;;;;;4976140;28;20299;-59
2021/08/31 12:22:04;;;;;;;8.10;6.30;;;16.30;99.90;;;;;;4987015;28;20503;-59
2021/08/31 12:24:32;;;;;;;8.48;7.72;;;16.20;99.90;;;;;;4977350;28;20455;-60
2021/08/31 12:27:07;;;;;;;7.88;7.15;;;16.10;99.90;;;;;;4993754;28;20476;-61
2021/08/31 12:29:56;;;;;;;8.52;7.72;;;16.00;99.90;;;;;;4998522;28;20253;-59
2021/08/31 12:32:28;;;;;;;11.90;9.25;;;16.00;99.90;;;;;;5007892;28;20226;-60
2021/08/31 12:34:57;;;;;;;10.60;8.98;;;16.00;99.90;;;;;;4986057;28;20207;-61
2021/08/31 12:37:29;;;;;;;10.55;9.48;;;15.90;99.90;;;;;;4995161;28;20242;-60
2021/08/31 12:40:15;;;;;;;10.30;8.97;;;15.90;99.90;;;;;;4979996;28;20212;-60
2021/08/31 12:42:47;;;;;;;10.90;9.80;;;16.00;99.90;;;;;;4980289;28;20532;-59
2021/08/31 12:45:27;;;;;;;10.48;9.48;;;16.00;99.90;;;;;;4983018;28;20230;-60
2021/08/31 12:47:56;;;;;;;12.25;10.85;;;16.00;99.90;;;;;;4991020;28;20238;-59
2021/08/31 12:50:24;;;;;;;10.85;9.75;;;16.00;99.90;;;;;;4995698;28;20244;-60
2021/08/31 12:53:06;;;;;;;13.65;11.05;;;15.90;99.90;;;;;;4995227;28;20400;-60